Time;durP1;ratioP1;P1;durP2;ratioP2;P2;SDS_P1;SDS_P2;PMS_P1;PMS_P2;Temp;Humidity;BMP_temperature;BMP_pressure;BME280_temperature;BME280_humidity;BME280_pressure;Samples;Min_cycle;Max_cycle;Signal;HPM_P1;HPM_P2
2020/12/05 00:02:15;;;;;;;4.20;3.00;;;5.20;79.40;;;;;;5156075;27;20110;-75
2020/12/05 00:04:40;;;;;;;7.30;3.45;;;5.20;79.40;;;;;;5137402;27;20431;-74
2020/12/05 00:07:09;;;;;;;4.65;3.00;;;5.30;79.30;;;;;;5137265;27;20075;-75
2020/12/05 00:09:34;;;;;;;6.10;3.45;;;5.30;79.20;;;;;;5137238;27;20105;-74
2020/12/05 00:12:08;;;;;;;6.00;3.47;;;5.30;79.10;;;;;;5137390;27;20057;-74
2020/12/05 00:14:35;;;;;;;5.55;3.17;;;5.30;79.10;;;;;;5137470;27;20030;-75
2020/12/05 00:17:02;;;;;;;4.93;3.30;;;5.30;79.20;;;;;;5137396;27;20113;-74
2020/12/05 00:19:27;;;;;;;6.45;3.80;;;5.30;79.30;;;;;;5156471;27;20058;-75
2020/12/05 00:21:54;;;;;;;7.40;3.45;;;5.30;79.30;;;;;;5156040;27;20027;-75
2020/12/05 00:24:20;;;;;;;6.18;3.50;;;5.30;79.30;;;;;;5137242;27;20061;-74
2020/12/05 00:26:48;;;;;;;5.53;3.70;;;5.30;79.20;;;;;;5137137;27;20469;-74
2020/12/05 00:29:14;;;;;;;5.78;3.58;;;5.30;79.10;;;;;;5137312;27;20113;-74
2020/12/05 00:31:40;;;;;;;5.45;3.67;;;5.30;79.20;;;;;;5136769;27;20053;-74
2020/12/05 00:34:06;;;;;;;5.18;3.58;;;5.30;79.30;;;;;;5136761;27;20114;-74
2020/12/05 00:36:31;;;;;;;6.20;4.00;;;5.30;79.30;;;;;;5136850;27;20033;-74
2020/12/05 00:38:57;;;;;;;5.50;3.75;;;5.30;79.30;;;;;;5155399;27;20031;-75
2020/12/05 00:41:22;;;;;;;6.20;3.83;;;5.30;79.30;;;;;;5155753;27;20372;-74
2020/12/05 00:43:48;;;;;;;5.35;3.30;;;5.30;79.30;;;;;;5136461;27;20031;-74
2020/12/05 00:46:14;;;;;;;5.15;3.17;;;5.30;79.30;;;;;;5155843;27;20019;-74
2020/12/05 00:48:39;;;;;;;5.35;3.15;;;5.40;79.30;;;;;;5155718;27;20031;-74
2020/12/05 00:51:05;;;;;;;4.88;3.08;;;5.40;79.20;;;;;;5136665;27;20019;-74
2020/12/05 00:53:31;;;;;;;5.20;3.15;;;5.40;79.80;;;;;;5155046;27;20025;-74
2020/12/05 00:55:57;;;;;;;5.22;3.53;;;5.40;79.10;;;;;;5136172;27;20030;-74
2020/12/05 00:58:22;;;;;;;4.97;3.05;;;5.50;79.10;;;;;;5155228;27;20048;-74
2020/12/05 01:00:48;;;;;;;6.78;2.92;;;5.50;79.10;;;;;;5155266;27;20054;-75
2020/12/05 01:03:14;;;;;;;4.82;2.85;;;5.40;79.00;;;;;;5136333;27;20109;-74
2020/12/05 01:05:39;;;;;;;4.78;3.13;;;5.40;79.10;;;;;;5154950;27;20035;-75
2020/12/05 01:08:06;;;;;;;5.10;2.90;;;5.40;79.10;;;;;;5136322;27;20022;-74
2020/12/05 01:10:33;;;;;;;4.65;2.90;;;5.40;79.20;;;;;;5136093;27;20030;-74
2020/12/05 01:13:02;;;;;;;4.00;2.70;;;5.30;79.10;;;;;;5155379;27;20027;-74
2020/12/05 01:15:29;;;;;;;4.35;2.70;;;5.30;79.20;;;;;;5136149;27;20200;-74
2020/12/05 01:17:55;;;;;;;5.00;2.90;;;5.20;79.30;;;;;;5154895;27;20473;-74
2020/12/05 01:20:21;;;;;;;4.28;2.60;;;5.20;79.50;;;;;;5154927;27;20026;-74
2020/12/05 01:22:47;;;;;;;3.65;2.33;;;5.20;79.60;;;;;;5136273;27;20034;-74
2020/12/05 01:25:12;;;;;;;5.03;2.63;;;5.10;79.60;;;;;;5135888;27;20043;-75
2020/12/05 01:27:38;;;;;;;3.90;2.63;;;5.10;79.70;;;;;;5136072;27;20034;-74
2020/12/05 01:30:04;;;;;;;4.15;2.50;;;5.00;79.70;;;;;;5151303;27;20033;-74
2020/12/05 01:32:30;;;;;;;3.40;2.67;;;5.00;79.70;;;;;;5135921;27;20019;-74
2020/12/05 01:34:55;;;;;;;4.60;2.47;;;4.90;79.70;;;;;;5136061;27;20030;-74
2020/12/05 01:37:21;;;;;;;3.40;2.30;;;4.80;79.90;;;;;;5136921;27;20154;-74
2020/12/05 01:39:47;;;;;;;4.13;2.55;;;4.80;80.00;;;;;;5135929;27;20041;-74
2020/12/05 01:42:12;;;;;;;4.18;2.58;;;4.80;80.70;;;;;;5136200;27;20027;-74
2020/12/05 01:44:38;;;;;;;3.00;2.45;;;4.80;80.00;;;;;;5154493;27;20362;-74
2020/12/05 01:47:04;;;;;;;3.15;2.30;;;4.80;80.10;;;;;;5136105;27;20054;-74
2020/12/05 01:49:31;;;;;;;4.80;2.78;;;4.80;80.10;;;;;;5135918;27;20025;-74
2020/12/05 01:51:59;;;;;;;3.88;2.28;;;4.80;80.10;;;;;;5136275;27;20458;-74
2020/12/05 01:54:25;;;;;;;3.65;2.40;;;4.80;80.20;;;;;;5135546;27;20023;-74
2020/12/05 01:57:03;;;;;;;4.78;2.60;;;4.90;80.80;;;;;;5154510;27;20033;-74
2020/12/05 01:59:29;;;;;;;4.10;2.70;;;4.90;80.20;;;;;;5135600;27;20022;-75
2020/12/05 02:02:02;;;;;;;4.75;2.58;;;4.90;80.10;;;;;;5135554;27;20062;-74
2020/12/05 02:04:43;;;;;;;3.67;2.70;;;4.90;80.00;;;;;;5153991;27;20022;-74
2020/12/05 02:07:43;;;;;;;3.00;2.42;;;5.00;80.00;;;;;;5154237;27;20097;-74
2020/12/05 02:10:15;;;;;;;4.18;2.53;;;5.00;80.00;;;;;;5154267;27;20029;-74
2020/12/05 02:12:44;;;;;;;3.38;2.60;;;5.10;79.90;;;;;;5135366;27;20018;-74
2020/12/05 02:15:13;;;;;;;3.80;2.83;;;5.10;79.80;;;;;;5135325;27;20054;-74
2020/12/05 02:18:02;;;;;;;5.07;2.83;;;5.10;79.90;;;;;;5154525;27;20023;-74
2020/12/05 02:20:31;;;;;;;5.00;2.85;;;5.10;79.90;;;;;;5135427;27;20046;-74
2020/12/05 02:23:11;;;;;;;4.95;2.90;;;5.10;79.80;;;;;;5135927;27;20369;-74
2020/12/05 02:25:38;;;;;;;4.10;2.45;;;5.20;79.80;;;;;;5135079;27;20049;-74
2020/12/05 02:28:06;;;;;;;4.07;2.50;;;5.20;79.80;;;;;;5135230;27;20030;-74
2020/12/05 02:30:32;;;;;;;4.03;2.80;;;5.30;79.70;;;;;;5135172;27;20146;-74
2020/12/05 02:32:59;;;;;;;5.50;3.15;;;5.30;79.70;;;;;;5135204;27;20427;-74
2020/12/05 02:35:26;;;;;;;3.88;3.22;;;5.30;79.50;;;;;;5135231;27;20022;-74
2020/12/05 02:38:05;;;;;;;4.95;2.85;;;5.30;79.50;;;;;;5154215;27;20146;-74
2020/12/05 02:40:31;;;;;;;3.80;2.47;;;5.20;79.60;;;;;;5153847;27;20046;-74
2020/12/05 02:42:57;;;;;;;5.80;3.40;;;5.20;79.70;;;;;;5135076;27;20122;-74
2020/12/05 02:45:23;;;;;;;3.70;2.25;;;5.20;79.70;;;;;;5134896;27;20133;-74
2020/12/05 02:47:49;;;;;;;4.57;3.25;;;5.20;79.70;;;;;;5135013;27;20476;-74
2020/12/05 02:50:15;;;;;;;4.70;2.92;;;5.20;79.80;;;;;;5153623;27;20029;-74
2020/12/05 02:52:40;;;;;;;4.85;3.17;;;5.20;79.90;;;;;;5153780;27;20078;-74
2020/12/05 02:55:06;;;;;;;6.50;3.13;;;5.20;79.90;;;;;;5153781;27;20027;-74
2020/12/05 02:57:31;;;;;;;5.95;3.00;;;5.20;80.00;;;;;;5134992;27;20019;-74
2020/12/05 02:59:57;;;;;;;7.57;2.85;;;5.20;80.00;;;;;;5153844;27;20036;-74
2020/12/05 03:02:23;;;;;;;4.47;3.30;;;5.30;80.00;;;;;;5134972;27;20163;-74
2020/12/05 03:04:48;;;;;;;4.55;3.00;;;5.30;79.90;;;;;;5134803;27;20022;-74
2020/12/05 03:07:15;;;;;;;5.68;3.25;;;5.40;79.90;;;;;;5138592;27;20014;-74
2020/12/05 03:09:41;;;;;;;6.18;3.50;;;5.40;79.90;;;;;;5139149;27;20019;-75
2020/12/05 03:12:07;;;;;;;5.32;3.22;;;5.50;79.90;;;;;;5157479;27;20030;-74
2020/12/05 03:14:33;;;;;;;6.43;3.40;;;5.50;79.80;;;;;;5138547;27;20122;-74
2020/12/05 03:16:58;;;;;;;4.90;2.90;;;5.50;79.80;;;;;;5138617;27;20048;-74
2020/12/05 03:19:24;;;;;;;5.80;3.10;;;5.50;79.70;;;;;;5157368;27;20022;-74
2020/12/05 03:21:50;;;;;;;4.68;3.00;;;5.50;79.70;;;;;;5138494;27;20105;-74
2020/12/05 03:24:15;;;;;;;5.40;3.33;;;5.50;79.80;;;;;;5138290;27;20458;-74
2020/12/05 03:26:41;;;;;;;4.28;3.03;;;5.50;79.80;;;;;;5138530;27;20069;-74
2020/12/05 03:29:07;;;;;;;3.60;2.70;;;5.50;79.80;;;;;;5138504;27;20489;-74
2020/12/05 03:31:53;;;;;;;5.97;3.30;;;5.40;79.90;;;;;;5157307;27;20019;-75
2020/12/05 03:34:19;;;;;;;3.50;2.83;;;5.40;79.90;;;;;;5138153;27;20076;-74
2020/12/05 03:36:45;;;;;;;4.35;2.95;;;5.40;79.90;;;;;;5138145;27;20387;-74
2020/12/05 03:39:11;;;;;;;5.22;3.40;;;5.40;79.90;;;;;;5138260;27;20099;-74
2020/12/05 03:41:37;;;;;;;4.38;2.90;;;5.40;80.00;;;;;;5138409;27;20143;-74
2020/12/05 03:44:03;;;;;;;5.60;3.35;;;5.30;80.00;;;;;;5156576;27;20490;-74
2020/12/05 03:46:29;;;;;;;5.97;3.20;;;5.30;80.10;;;;;;5137822;27;20019;-75
2020/12/05 03:48:54;;;;;;;6.18;3.25;;;5.30;80.10;;;;;;5137976;27;20101;-74
2020/12/05 03:51:20;;;;;;;4.88;3.05;;;5.30;80.20;;;;;;5137870;27;20091;-75
2020/12/05 03:53:46;;;;;;;4.97;2.95;;;5.30;80.10;;;;;;5137762;27;20479;-74
2020/12/05 03:56:11;;;;;;;4.20;2.88;;;5.30;80.20;;;;;;5156479;27;20477;-74
2020/12/05 03:58:38;;;;;;;6.07;3.10;;;5.30;80.10;;;;;;5156570;27;20019;-74
2020/12/05 04:01:05;;;;;;;4.20;3.10;;;5.40;80.20;;;;;;5156438;27;20083;-75
2020/12/05 04:03:30;;;;;;;3.67;2.90;;;5.30;80.10;;;;;;5137689;27;20114;-74
2020/12/05 04:05:56;;;;;;;4.68;2.95;;;5.30;80.10;;;;;;5156207;27;20433;-74
2020/12/05 04:08:21;;;;;;;4.32;3.10;;;5.30;80.10;;;;;;5137593;27;20116;-74
2020/12/05 04:10:47;;;;;;;6.97;3.22;;;5.30;80.20;;;;;;5137617;27;20095;-74
2020/12/05 04:13:13;;;;;;;5.13;3.20;;;5.30;80.30;;;;;;5138382;27;20049;-74
2020/12/05 04:15:38;;;;;;;5.15;3.13;;;5.20;80.20;;;;;;5156386;27;20035;-74
2020/12/05 04:18:04;;;;;;;5.28;3.00;;;5.20;80.30;;;;;;5136279;27;20022;-74
2020/12/05 04:20:29;;;;;;;4.82;3.50;;;5.20;80.30;;;;;;5156570;27;20038;-74
2020/12/05 04:22:55;;;;;;;4.97;3.28;;;5.10;80.40;;;;;;5137659;27;20472;-74
2020/12/05 04:25:24;;;;;;;3.72;2.95;;;5.10;80.50;;;;;;5134594;27;20043;-74
2020/12/05 04:27:51;;;;;;;5.65;3.50;;;5.10;81.00;;;;;;5134494;27;20103;-74
2020/12/05 04:30:17;;;;;;;6.25;3.40;;;5.10;80.50;;;;;;5133907;27;20072;-74
2020/12/05 04:32:42;;;;;;;4.72;3.10;;;5.00;80.40;;;;;;5135195;27;20474;-74
2020/12/05 04:35:09;;;;;;;4.30;3.33;;;5.00;80.50;;;;;;5133920;27;20031;-74
2020/12/05 04:37:35;;;;;;;4.90;3.30;;;5.00;81.10;;;;;;5135217;27;20023;-74
2020/12/05 04:40:02;;;;;;;3.97;3.45;;;5.00;80.50;;;;;;5134974;27;20030;-74
2020/12/05 04:42:27;;;;;;;5.63;3.28;;;5.00;80.50;;;;;;5133498;27;20076;-74
2020/12/05 04:44:54;;;;;;;6.03;3.60;;;5.00;80.40;;;;;;5134911;27;20027;-74
2020/12/05 04:47:20;;;;;;;6.25;3.53;;;5.00;80.40;;;;;;5134809;27;20457;-74
2020/12/05 04:49:47;;;;;;;11.35;3.70;;;5.00;80.40;;;;;;5136015;27;20106;-74
2020/12/05 04:52:52;;;;;;;4.25;3.10;;;5.00;80.40;;;;;;5133707;27;20024;-74
2020/12/05 04:55:23;;;;;;;4.72;3.35;;;4.90;80.40;;;;;;5074602;28;20376;-74
2020/12/05 04:57:59;;;;;;;5.13;3.40;;;4.90;80.50;;;;;;5074644;28;20024;-74
2020/12/05 05:00:28;;;;;;;5.72;3.60;;;4.80;80.50;;;;;;5074709;28;20032;-74
2020/12/05 05:03:00;;;;;;;5.15;3.35;;;4.80;80.40;;;;;;5091897;28;20032;-74
2020/12/05 05:05:26;;;;;;;5.95;3.13;;;4.80;80.50;;;;;;5091590;28;20063;-73
2020/12/05 05:07:53;;;;;;;6.90;3.60;;;4.70;80.60;;;;;;5074864;28;20062;-74
2020/12/05 05:10:29;;;;;;;4.38;3.17;;;4.70;80.70;;;;;;5091516;28;20055;-73
2020/12/05 05:13:12;;;;;;;6.43;3.95;;;4.70;80.70;;;;;;5074346;28;20032;-73
2020/12/05 05:15:39;;;;;;;5.57;3.47;;;4.70;80.60;;;;;;5074280;28;20027;-73
2020/12/05 05:18:05;;;;;;;5.25;3.70;;;4.70;80.70;;;;;;5091176;28;20127;-74
2020/12/05 05:20:41;;;;;;;4.80;3.50;;;4.60;80.70;;;;;;5091171;28;20036;-73
2020/12/05 05:23:13;;;;;;;5.03;3.60;;;4.60;80.70;;;;;;5074053;28;20028;-73
2020/12/05 05:25:57;;;;;;;6.75;3.95;;;4.60;80.70;;;;;;5078595;28;20491;-73
2020/12/05 05:28:22;;;;;;;;;;;4.60;80.70;;;;;;5112367;28;20110;-74
2020/12/05 05:33:49;;;;;;;8.10;3.80;;;4.60;80.70;;;;;;5113681;28;20387;-73
2020/12/05 05:36:26;;;;;;;8.82;4.45;;;4.60;80.80;;;;;;5113904;27;20028;-74
2020/12/05 05:39:04;;;;;;;7.05;4.10;;;4.60;80.80;;;;;;5113617;28;20016;-74
2020/12/05 05:41:30;;;;;;;6.13;3.92;;;4.60;80.70;;;;;;5112275;28;20023;-73
2020/12/05 05:44:01;;;;;;;7.63;4.18;;;4.60;80.70;;;;;;5112672;28;20062;-74
2020/12/05 05:46:42;;;;;;;5.93;4.22;;;4.60;80.70;;;;;;5112057;28;20011;-74
2020/12/05 05:49:11;;;;;;;7.32;3.92;;;4.70;80.70;;;;;;5112149;28;20016;-74
2020/12/05 05:51:46;;;;;;;6.15;3.75;;;4.70;80.70;;;;;;5112028;28;20069;-74
2020/12/05 05:54:16;;;;;;;6.32;3.85;;;4.70;80.60;;;;;;5112096;28;20201;-74
2020/12/05 05:56:55;;;;;;;5.55;4.20;;;4.70;80.50;;;;;;5113322;28;20019;-74
2020/12/05 05:59:23;;;;;;;5.15;3.70;;;4.60;80.60;;;;;;5113460;28;20027;-74
2020/12/05 06:01:53;;;;;;;5.50;4.10;;;4.50;80.70;;;;;;5111733;28;20035;-74
2020/12/05 06:04:27;;;;;;;6.47;4.10;;;4.50;80.90;;;;;;5111545;28;20027;-74
2020/12/05 06:06:52;;;;;;;;;;;4.50;81.00;;;;;;5112348;28;20094;-73
2020/12/05 06:09:25;;;;;;;7.05;4.25;;;4.50;81.00;;;;;;5111568;28;19957;-73
2020/12/05 06:11:56;;;;;;;7.20;4.30;;;4.50;81.00;;;;;;5111845;28;20366;-73
2020/12/05 06:14:22;;;;;;;7.10;4.63;;;4.50;81.10;;;;;;5112939;28;20085;-73
2020/12/05 06:16:54;;;;;;;8.38;4.82;;;4.40;81.10;;;;;;5113113;28;20056;-74
2020/12/05 06:19:21;;;;;;;7.30;4.22;;;4.50;81.20;;;;;;5111436;28;20538;-73
2020/12/05 06:21:55;;;;;;;7.28;4.88;;;4.50;81.10;;;;;;5111804;28;20470;-73
2020/12/05 06:24:42;;;;;;;7.40;4.88;;;4.50;81.10;;;;;;5116716;27;20042;-73
2020/12/05 06:27:09;;;;;;;6.45;4.68;;;4.50;81.20;;;;;;5135434;27;20442;-73
2020/12/05 06:29:38;;;;;;;8.88;5.35;;;4.50;81.80;;;;;;5135447;27;20050;-73
2020/12/05 06:32:03;;;;;;;6.13;4.75;;;4.50;81.20;;;;;;5154043;27;20022;-73
2020/12/05 06:34:40;;;;;;;6.80;4.53;;;4.50;81.30;;;;;;5154200;27;20414;-74
2020/12/05 06:37:11;;;;;;;7.28;4.93;;;4.40;81.30;;;;;;5135751;27;20026;-73
2020/12/05 06:39:38;;;;;;;5.28;4.55;;;4.40;81.30;;;;;;5135740;27;20469;-73
2020/12/05 06:42:16;;;;;;;8.90;5.65;;;4.40;81.40;;;;;;5138401;27;20057;-73
2020/12/05 06:44:41;;;;;;;6.43;4.47;;;4.40;81.50;;;;;;5139589;27;20015;-73
2020/12/05 06:47:21;;;;;;;7.97;5.00;;;4.30;81.40;;;;;;5139691;27;20539;-74
2020/12/05 06:49:48;;;;;;;8.45;5.05;;;4.30;81.50;;;;;;5139455;27;20377;-73
2020/12/05 06:52:26;;;;;;;8.10;5.28;;;4.30;81.50;;;;;;5158697;27;20019;-73
2020/12/05 06:55:08;;;;;;;7.28;5.28;;;4.30;81.60;;;;;;5158435;27;20159;-74
2020/12/05 06:57:38;;;;;;;7.15;5.10;;;4.30;81.60;;;;;;5158562;27;20019;-73
2020/12/05 07:00:29;;;;;;;8.57;4.80;;;4.20;81.80;;;;;;5139954;27;20030;-74
2020/12/05 07:03:08;;;;;;;8.80;5.30;;;4.30;81.70;;;;;;5158739;27;20469;-73
2020/12/05 07:05:35;;;;;;;6.82;5.22;;;4.30;81.70;;;;;;5139892;27;20022;-72
2020/12/05 07:08:18;;;;;;;7.40;5.18;;;4.20;81.70;;;;;;5158287;27;20095;-73
2020/12/05 07:11:24;;;;;;;10.05;5.25;;;4.30;81.60;;;;;;5139762;27;20019;-72
2020/12/05 07:13:51;;;;;;;7.60;5.18;;;4.30;81.60;;;;;;5073965;28;20024;-73
2020/12/05 07:16:25;;;;;;;7.53;5.70;;;4.40;81.50;;;;;;5123702;27;20474;-73
2020/12/05 07:18:54;;;;;;;8.75;5.47;;;4.30;81.40;;;;;;5139064;27;20029;-73
2020/12/05 07:21:22;;;;;;;6.63;5.32;;;4.40;81.40;;;;;;5138975;27;20023;-73
2020/12/05 07:23:49;;;;;;;7.53;5.07;;;4.40;81.40;;;;;;5157581;27;20526;-72
2020/12/05 07:26:15;;;;;;;7.05;5.35;;;4.50;81.40;;;;;;5139166;27;20489;-72
2020/12/05 07:28:52;;;;;;;9.75;5.78;;;4.40;81.30;;;;;;5139048;27;20026;-72
2020/12/05 07:31:18;;;;;;;13.68;5.53;;;4.60;81.30;;;;;;5138751;27;20030;-72
2020/12/05 07:33:45;;;;;;;8.35;5.50;;;4.60;81.20;;;;;;5138905;27;20118;-73
2020/12/05 07:36:13;;;;;;;8.57;5.50;;;4.60;81.20;;;;;;5157178;27;20155;-73
2020/12/05 07:38:40;;;;;;;7.32;5.50;;;4.60;81.20;;;;;;5138382;27;20026;-72
2020/12/05 07:41:16;;;;;;;8.60;5.40;;;4.60;81.20;;;;;;5138603;27;20026;-73
2020/12/05 07:43:42;;;;;;;8.00;5.53;;;4.60;81.20;;;;;;5138474;27;20029;-72
2020/12/05 07:46:10;;;;;;;7.70;4.93;;;4.70;81.20;;;;;;5157239;27;20034;-73
2020/12/05 07:48:37;;;;;;;8.23;5.20;;;4.70;81.20;;;;;;5138460;27;20106;-72
2020/12/05 07:51:10;;;;;;;7.85;5.88;;;4.70;81.20;;;;;;5138347;27;20023;-72
2020/12/05 07:53:36;;;;;;;7.07;4.78;;;4.80;81.20;;;;;;5157203;27;20031;-72
2020/12/05 07:56:25;;;;;;;7.20;4.95;;;4.80;81.20;;;;;;5139240;27;20381;-72
2020/12/05 07:58:56;;;;;;;7.40;4.90;;;4.80;81.20;;;;;;5156832;27;20102;-72
2020/12/05 08:01:57;;;;;;;7.25;5.32;;;4.90;81.20;;;;;;5137952;27;20042;-73
2020/12/05 08:04:52;;;;;;;7.50;4.70;;;4.90;81.20;;;;;;5157760;27;20027;-73
2020/12/05 08:07:34;;;;;;;10.20;5.28;;;4.90;81.20;;;;;;5138198;27;20023;-72
2020/12/05 08:10:00;;;;;;;7.05;4.85;;;5.00;81.20;;;;;;5157364;27;20058;-73
2020/12/05 08:12:43;;;;;;;8.43;5.20;;;5.00;81.10;;;;;;5137569;27;20381;-73
2020/12/05 08:15:12;;;;;;;7.18;5.18;;;5.00;81.00;;;;;;5137653;27;20026;-73
2020/12/05 08:17:39;;;;;;;6.53;4.88;;;5.00;81.00;;;;;;5137662;27;20022;-72
2020/12/05 08:20:06;;;;;;;5.75;4.53;;;5.10;81.10;;;;;;5137770;27;20338;-72
2020/12/05 08:22:32;;;;;;;6.63;4.80;;;5.10;81.10;;;;;;5156503;27;20033;-73
2020/12/05 08:24:58;;;;;;;7.95;4.80;;;5.10;81.00;;;;;;5156158;27;20047;-73
2020/12/05 08:27:25;;;;;;;6.40;4.80;;;5.10;81.00;;;;;;5156225;27;20014;-72
2020/12/05 08:29:51;;;;;;;7.50;4.63;;;5.20;81.10;;;;;;5156621;27;20019;-73
2020/12/05 08:32:21;;;;;;;6.72;4.20;;;5.20;81.00;;;;;;5156168;27;20015;-73
2020/12/05 08:34:48;;;;;;;4.85;4.05;;;5.30;81.00;;;;;;5156098;27;20054;-73
2020/12/05 08:37:24;;;;;;;5.85;4.18;;;5.30;80.90;;;;;;5156083;27;20377;-72
2020/12/05 08:39:51;;;;;;;7.25;4.40;;;5.40;80.80;;;;;;5137246;27;20083;-73
2020/12/05 08:42:17;;;;;;;6.22;4.32;;;5.50;81.40;;;;;;5155736;27;20077;-72
2020/12/05 08:44:43;;;;;;;4.68;3.83;;;5.50;80.60;;;;;;5137008;27;20054;-72
2020/12/05 08:47:09;;;;;;;4.95;4.10;;;5.60;80.60;;;;;;5156317;27;20083;-73
2020/12/05 08:49:41;;;;;;;5.25;3.90;;;5.70;80.60;;;;;;5155863;27;20023;-73
2020/12/05 08:52:08;;;;;;;5.63;4.07;;;5.70;80.40;;;;;;5137148;27;20014;-73
2020/12/05 08:54:46;;;;;;;5.03;3.33;;;5.80;80.40;;;;;;5136883;27;20066;-73
2020/12/05 08:57:13;;;;;;;6.25;3.88;;;5.80;80.30;;;;;;5137034;27;20023;-73
2020/12/05 08:59:39;;;;;;;5.55;3.80;;;5.80;80.30;;;;;;5137190;27;20390;-73
2020/12/05 09:02:05;;;;;;;5.10;3.95;;;5.80;80.20;;;;;;5155803;27;20147;-73
2020/12/05 09:04:36;;;;;;;4.32;3.63;;;5.80;80.20;;;;;;5151649;27;20106;-73
2020/12/05 09:07:10;;;;;;;5.43;4.10;;;5.80;80.20;;;;;;5136874;27;20476;-73
2020/12/05 09:09:36;;;;;;;5.28;3.50;;;5.90;80.20;;;;;;5137057;27;20045;-73
2020/12/05 09:12:07;;;;;;;5.68;3.63;;;5.90;80.20;;;;;;5136558;27;20103;-73
2020/12/05 09:14:34;;;;;;;5.35;3.47;;;5.90;80.20;;;;;;5136630;27;20022;-73
2020/12/05 09:17:00;;;;;;;6.10;3.97;;;5.90;80.20;;;;;;5155207;27;20063;-73
2020/12/05 09:19:27;;;;;;;5.30;3.80;;;5.90;80.20;;;;;;5136576;27;20022;-72
2020/12/05 09:21:54;;;;;;;6.80;3.70;;;6.00;80.10;;;;;;5155752;27;20030;-73
2020/12/05 09:24:20;;;;;;;6.05;3.75;;;6.00;80.10;;;;;;5136860;27;20065;-73
2020/12/05 09:26:59;;;;;;;4.78;3.47;;;6.00;80.00;;;;;;5154994;27;20046;-73
2020/12/05 09:29:25;;;;;;;6.20;4.07;;;6.00;80.00;;;;;;5155085;27;20492;-73
2020/12/05 09:31:53;;;;;;;5.03;3.58;;;6.00;80.00;;;;;;5136357;27;20019;-73
2020/12/05 09:34:33;;;;;;;4.43;3.10;;;6.10;79.90;;;;;;5155045;27;20018;-74
2020/12/05 09:36:59;;;;;;;4.45;3.10;;;6.10;80.50;;;;;;5135978;27;20435;-73
2020/12/05 09:39:25;;;;;;;4.60;3.45;;;6.10;79.80;;;;;;5136138;27;20027;-73
2020/12/05 09:41:50;;;;;;;5.40;3.60;;;6.10;79.80;;;;;;5154669;27;20031;-73
2020/12/05 09:44:16;;;;;;;4.38;3.30;;;6.10;79.80;;;;;;5135784;27;20030;-73
2020/12/05 09:46:42;;;;;;;4.45;3.30;;;6.10;79.80;;;;;;5155212;27;20166;-73
2020/12/05 09:49:07;;;;;;;4.35;3.50;;;6.10;79.70;;;;;;5135898;27;20058;-73
2020/12/05 09:51:33;;;;;;;4.97;3.40;;;6.20;79.70;;;;;;5135985;27;20011;-73
2020/12/05 09:53:58;;;;;;;4.47;3.38;;;6.20;79.70;;;;;;5154443;27;20084;-73
2020/12/05 09:56:24;;;;;;;4.07;3.25;;;6.20;79.60;;;;;;5154211;27;20019;-73
2020/12/05 09:58:50;;;;;;;5.00;4.05;;;6.20;79.60;;;;;;5135765;27;20015;-73
2020/12/05 10:01:18;;;;;;;5.10;3.70;;;6.30;79.60;;;;;;5154747;27;20110;-72
2020/12/05 10:03:44;;;;;;;5.30;4.68;;;6.30;79.50;;;;;;5136686;27;20022;-72
2020/12/05 10:06:09;;;;;;;6.20;4.30;;;6.30;79.40;;;;;;5135693;27;20049;-72
2020/12/05 10:08:35;;;;;;;7.20;5.13;;;6.30;79.40;;;;;;5135815;27;20022;-73
2020/12/05 10:11:00;;;;;;;5.47;4.47;;;6.40;79.40;;;;;;5154311;27;20023;-73
2020/12/05 10:13:26;;;;;;;5.47;4.30;;;6.50;79.40;;;;;;5135630;27;20477;-72
2020/12/05 10:15:52;;;;;;;5.28;4.43;;;6.50;79.30;;;;;;5157018;27;20027;-73
2020/12/05 10:18:17;;;;;;;5.25;3.63;;;6.60;79.20;;;;;;5158939;27;20450;-73
2020/12/05 10:20:43;;;;;;;4.97;4.00;;;6.60;79.10;;;;;;5158560;27;20123;-72
2020/12/05 10:23:08;;;;;;;4.63;3.75;;;6.60;79.00;;;;;;5158411;27;20029;-72
2020/12/05 10:25:34;;;;;;;4.60;4.00;;;6.70;78.90;;;;;;5158216;27;20476;-72
2020/12/05 10:27:59;;;;;;;4.97;3.58;;;6.70;78.80;;;;;;5139752;27;20023;-75
2020/12/05 10:30:25;;;;;;;5.57;4.05;;;6.70;78.60;;;;;;5139380;27;20106;-73
2020/12/05 10:32:51;;;;;;;5.03;3.58;;;6.70;78.40;;;;;;5139519;27;20030;-73
2020/12/05 10:35:17;;;;;;;4.78;3.60;;;6.80;78.40;;;;;;5158121;27;20048;-73
2020/12/05 10:37:42;;;;;;;5.07;3.30;;;6.80;78.10;;;;;;5139294;27;20033;-73
2020/12/05 10:40:08;;;;;;;4.32;3.38;;;6.70;78.00;;;;;;5158093;27;20033;-73
2020/12/05 10:42:33;;;;;;;4.22;2.92;;;6.80;78.10;;;;;;5139501;27;20111;-73
2020/12/05 10:44:59;;;;;;;5.05;3.75;;;6.80;78.10;;;;;;5158266;27;20025;-73
2020/12/05 10:47:25;;;;;;;3.30;3.00;;;6.90;78.00;;;;;;5139347;27;20110;-73
2020/12/05 10:49:50;;;;;;;4.43;3.08;;;6.90;77.90;;;;;;5158067;27;20046;-73
2020/12/05 10:52:16;;;;;;;4.32;3.47;;;6.90;77.80;;;;;;5139140;27;20022;-74
2020/12/05 10:54:42;;;;;;;5.00;3.17;;;6.90;77.60;;;;;;5139078;27;20033;-72
2020/12/05 10:57:07;;;;;;;3.65;2.80;;;6.90;77.50;;;;;;5140768;27;20432;-73
2020/12/05 10:59:33;;;;;;;3.20;2.75;;;6.90;77.40;;;;;;5158726;27;20018;-74
2020/12/05 11:01:59;;;;;;;3.35;2.97;;;7.00;77.40;;;;;;5139313;27;20122;-74
2020/12/05 11:04:24;;;;;;;4.00;2.85;;;7.00;77.40;;;;;;5157577;27;20433;-74
2020/12/05 11:06:50;;;;;;;3.35;2.47;;;7.00;77.30;;;;;;5157682;27;20026;-73
2020/12/05 11:09:16;;;;;;;3.53;2.63;;;7.00;77.20;;;;;;5138917;27;20073;-73
2020/12/05 11:11:44;;;;;;;4.35;3.15;;;7.00;77.20;;;;;;5139599;27;20512;-75
2020/12/05 11:14:09;;;;;;;4.15;2.83;;;7.10;77.20;;;;;;5138641;27;20022;-74
2020/12/05 11:16:36;;;;;;;4.20;2.88;;;7.20;77.10;;;;;;5139038;27;20462;-73
2020/12/05 11:19:02;;;;;;;4.30;3.20;;;7.30;76.90;;;;;;5138614;27;20019;-72
2020/12/05 11:21:28;;;;;;;4.22;3.00;;;7.30;76.80;;;;;;5157321;27;20033;-73
2020/12/05 11:23:54;;;;;;;4.15;3.10;;;7.40;76.40;;;;;;5138726;27;20048;-73
2020/12/05 11:26:20;;;;;;;2.97;2.58;;;7.40;76.10;;;;;;5156255;27;20038;-73
2020/12/05 11:28:47;;;;;;;3.15;2.70;;;7.50;76.20;;;;;;5157205;27;20485;-72
2020/12/05 11:31:13;;;;;;;2.58;2.33;;;7.50;76.10;;;;;;5138552;27;20462;-71
2020/12/05 11:33:39;;;;;;;3.47;2.72;;;7.60;76.00;;;;;;5138456;27;20051;-72
2020/12/05 11:36:06;;;;;;;2.97;2.22;;;7.60;75.80;;;;;;5157173;27;20138;-72
2020/12/05 11:38:32;;;;;;;3.13;2.40;;;7.60;75.40;;;;;;5139169;27;20019;-72
2020/12/05 11:40:57;;;;;;;3.28;2.42;;;7.70;75.50;;;;;;5139131;27;20363;-72
2020/12/05 11:43:23;;;;;;;3.85;2.63;;;7.80;75.40;;;;;;5138391;27;20019;-71
2020/12/05 11:45:49;;;;;;;3.35;2.40;;;8.00;75.20;;;;;;5138338;27;20088;-74
2020/12/05 11:48:14;;;;;;;3.72;2.72;;;8.00;74.80;;;;;;5138425;27;20335;-74
2020/12/05 11:50:40;;;;;;;5.45;2.95;;;8.00;74.70;;;;;;5156848;27;20439;-72
2020/12/05 11:53:08;;;;;;;2.85;2.50;;;8.10;74.60;;;;;;5138311;27;20011;-72
2020/12/05 11:55:33;;;;;;;2.50;2.20;;;8.20;74.10;;;;;;5139026;27;20046;-72
2020/12/05 11:57:59;;;;;;;3.80;2.42;;;8.10;73.70;;;;;;5158869;27;20458;-73
2020/12/05 12:00:26;;;;;;;2.78;2.45;;;8.10;73.70;;;;;;5156603;27;20022;-72
2020/12/05 12:02:55;;;;;;;4.93;3.28;;;8.10;73.50;;;;;;5156511;27;20019;-72
2020/12/05 12:05:21;;;;;;;5.13;3.33;;;8.00;73.50;;;;;;5156801;27;20031;-72
2020/12/05 12:07:47;;;;;;;6.18;3.90;;;8.00;73.60;;;;;;5156707;27;20426;-72
2020/12/05 12:10:13;;;;;;;6.30;3.20;;;8.00;73.70;;;;;;5138027;27;20091;-72
2020/12/05 12:12:41;;;;;;;3.35;2.47;;;8.00;73.70;;;;;;5156662;27;20307;-73
2020/12/05 12:15:06;;;;;;;4.30;2.78;;;7.90;73.60;;;;;;5156531;27;20019;-72
2020/12/05 12:17:32;;;;;;;3.53;2.75;;;8.00;73.50;;;;;;5156531;27;20046;-72
2020/12/05 12:19:57;;;;;;;2.72;2.20;;;8.00;73.40;;;;;;5137671;27;20526;-72
2020/12/05 12:22:23;;;;;;;4.38;2.42;;;7.90;73.30;;;;;;5137699;27;20019;-72
2020/12/05 12:24:49;;;;;;;2.55;2.20;;;7.90;73.10;;;;;;5156294;27;20366;-72
2020/12/05 12:27:14;;;;;;;3.25;2.30;;;7.90;73.20;;;;;;5156171;27;20086;-72
2020/12/05 12:29:40;;;;;;;3.22;2.30;;;7.90;73.20;;;;;;5137283;27;20490;-72
2020/12/05 12:35:53;;;;;;;3.30;2.50;;;7.90;72.90;;;;;;5156945;27;20056;-72
2020/12/05 12:38:19;;;;;;;2.30;2.10;;;7.90;72.70;;;;;;5136306;27;20485;-72
2020/12/05 12:40:44;;;;;;;5.03;2.10;;;7.80;72.70;;;;;;5137210;27;20037;-72
2020/12/05 12:43:10;;;;;;;4.57;2.35;;;7.90;72.60;;;;;;5137336;27;20023;-72
2020/12/05 12:45:36;;;;;;;4.40;2.65;;;8.00;72.70;;;;;;5155736;27;20038;-72
2020/12/05 12:50:27;;;;;;;4.45;2.97;;;8.00;72.50;;;;;;5156008;27;20485;-72
2020/12/05 12:52:52;;;;;;;4.28;2.45;;;8.10;72.50;;;;;;5155845;27;20034;-72
2020/12/05 12:55:18;;;;;;;3.38;2.13;;;8.10;72.40;;;;;;5137119;27;20023;-73
2020/12/05 12:57:46;;;;;;;4.20;2.63;;;8.20;72.60;;;;;;5155632;27;20030;-72
2020/12/05 13:00:12;;;;;;;4.13;2.15;;;8.20;72.30;;;;;;5136887;27;20072;-72
2020/12/05 13:02:38;;;;;;;3.92;2.60;;;8.20;72.30;;;;;;5136629;27;20030;-73
2020/12/05 13:05:03;;;;;;;6.53;2.55;;;8.20;72.30;;;;;;5136761;27;20031;-72
2020/12/05 13:07:29;;;;;;;3.60;2.40;;;8.20;72.40;;;;;;5136854;27;20034;-72
2020/12/05 13:09:54;;;;;;;3.60;2.60;;;8.20;72.30;;;;;;5136782;27;20031;-72
2020/12/05 13:12:20;;;;;;;3.35;2.35;;;8.20;72.30;;;;;;5137122;27;20023;-72
2020/12/05 13:14:46;;;;;;;5.53;2.47;;;8.30;72.20;;;;;;5155543;27;20023;-72